sensor_id;sensor_type;location;lat;lon;timestamp;P1;durP1;ratioP1;P2;durP2;ratioP2
47403;SDS011;33157;51.508;4.288;2024-01-10T00:04:30;6.15;;;2.60;;
47403;SDS011;33157;51.508;4.288;2024-01-10T00:09:30;10.70;;;4.37;;
47403;SDS011;33157;51.508;4.288;2024-01-10T00:14:30;11.00;;;5.37;;
47403;SDS011;33157;51.508;4.288;2024-01-10T00:19:31;7.77;;;3.13;;
47403;SDS011;33157;51.508;4.288;2024-01-10T00:24:31;4.07;;;2.53;;
47403;SDS011;33157;51.508;4.288;2024-01-10T00:29:32;4.87;;;2.47;;
47403;SDS011;33157;51.508;4.288;2024-01-10T00:34:32;6.17;;;2.60;;
47403;SDS011;33157;51.508;4.288;2024-01-10T00:39:33;4.33;;;2.13;;
47403;SDS011;33157;51.508;4.288;2024-01-10T00:44:33;6.93;;;3.10;;
47403;SDS011;33157;51.508;4.288;2024-01-10T00:49:36;5.47;;;2.42;;
47403;SDS011;33157;51.508;4.288;2024-01-10T00:54:37;6.20;;;2.93;;
47403;SDS011;33157;51.508;4.288;2024-01-10T00:59:37;6.37;;;2.93;;
47403;SDS011;33157;51.508;4.288;2024-01-10T01:04:37;5.30;;;2.80;;
47403;SDS011;33157;51.508;4.288;2024-01-10T01:09:38;5.67;;;2.87;;
47403;SDS011;33157;51.508;4.288;2024-01-10T01:14:38;6.43;;;2.87;;
47403;SDS011;33157;51.508;4.288;2024-01-10T01:19:39;7.53;;;2.97;;
47403;SDS011;33157;51.508;4.288;2024-01-10T01:24:39;6.33;;;2.97;;
47403;SDS011;33157;51.508;4.288;2024-01-10T01:29:40;4.57;;;2.40;;
47403;SDS011;33157;51.508;4.288;2024-01-10T01:34:40;7.23;;;2.33;;
47403;SDS011;33157;51.508;4.288;2024-01-10T01:39:41;6.67;;;2.20;;
47403;SDS011;33157;51.508;4.288;2024-01-10T01:44:41;5.03;;;2.97;;
47403;SDS011;33157;51.508;4.288;2024-01-10T01:49:42;5.80;;;2.50;;
47403;SDS011;33157;51.508;4.288;2024-01-10T01:54:43;5.40;;;2.67;;
47403;SDS011;33157;51.508;4.288;2024-01-10T01:59:43;5.03;;;2.60;;
47403;SDS011;33157;51.508;4.288;2024-01-10T02:04:45;9.33;;;2.47;;
47403;SDS011;33157;51.508;4.288;2024-01-10T02:09:46;4.93;;;2.42;;
47403;SDS011;33157;51.508;4.288;2024-01-10T02:14:47;3.10;;;2.00;;
47403;SDS011;33157;51.508;4.288;2024-01-10T02:19:48;6.77;;;2.37;;
47403;SDS011;33157;51.508;4.288;2024-01-10T02:24:52;5.50;;;2.90;;
47403;SDS011;33157;51.508;4.288;2024-01-10T02:29:54;7.78;;;2.65;;
47403;SDS011;33157;51.508;4.288;2024-01-10T02:34:54;3.90;;;2.23;;
47403;SDS011;33157;51.508;4.288;2024-01-10T02:39:55;5.57;;;3.10;;
47403;SDS011;33157;51.508;4.288;2024-01-10T02:44:55;7.07;;;2.80;;
47403;SDS011;33157;51.508;4.288;2024-01-10T02:49:56;3.27;;;2.43;;
47403;SDS011;33157;51.508;4.288;2024-01-10T02:54:57;8.47;;;2.67;;
47403;SDS011;33157;51.508;4.288;2024-01-10T02:59:57;5.03;;;2.53;;
47403;SDS011;33157;51.508;4.288;2024-01-10T03:04:58;5.80;;;3.00;;
47403;SDS011;33157;51.508;4.288;2024-01-10T03:09:58;7.00;;;2.70;;
47403;SDS011;33157;51.508;4.288;2024-01-10T03:14:59;6.93;;;2.80;;
47403;SDS011;33157;51.508;4.288;2024-01-10T03:19:59;6.33;;;2.80;;
47403;SDS011;33157;51.508;4.288;2024-01-10T03:25:00;5.50;;;2.50;;
47403;SDS011;33157;51.508;4.288;2024-01-10T03:30:00;4.47;;;2.27;;
47403;SDS011;33157;51.508;4.288;2024-01-10T03:35:01;6.10;;;2.80;;
47403;SDS011;33157;51.508;4.288;2024-01-10T03:40:01;3.93;;;2.17;;
47403;SDS011;33157;51.508;4.288;2024-01-10T03:45:02;4.63;;;2.40;;
47403;SDS011;33157;51.508;4.288;2024-01-10T03:50:03;3.90;;;2.03;;
47403;SDS011;33157;51.508;4.288;2024-01-10T03:55:04;4.95;;;3.30;;
47403;SDS011;33157;51.508;4.288;2024-01-10T04:00:05;3.83;;;2.10;;
47403;SDS011;33157;51.508;4.288;2024-01-10T04:05:09;5.28;;;2.58;;
47403;SDS011;33157;51.508;4.288;2024-01-10T04:10:12;5.60;;;3.00;;
47403;SDS011;33157;51.508;4.288;2024-01-10T04:15:14;4.72;;;2.55;;
47403;SDS011;33157;51.508;4.288;2024-01-10T04:20:15;5.37;;;2.70;;
47403;SDS011;33157;51.508;4.288;2024-01-10T04:25:15;6.93;;;3.08;;
47403;SDS011;33157;51.508;4.288;2024-01-10T04:30:16;6.43;;;2.67;;
47403;SDS011;33157;51.508;4.288;2024-01-10T04:35:16;4.83;;;2.53;;
47403;SDS011;33157;51.508;4.288;2024-01-10T04:40:17;5.67;;;2.77;;
47403;SDS011;33157;51.508;4.288;2024-01-10T04:45:17;5.00;;;2.50;;
47403;SDS011;33157;51.508;4.288;2024-01-10T04:50:18;5.70;;;2.63;;
47403;SDS011;33157;51.508;4.288;2024-01-10T04:55:18;5.33;;;3.27;;
47403;SDS011;33157;51.508;4.288;2024-01-10T05:00:19;6.57;;;2.80;;
47403;SDS011;33157;51.508;4.288;2024-01-10T05:05:19;5.63;;;3.00;;
47403;SDS011;33157;51.508;4.288;2024-01-10T05:10:23;5.95;;;3.00;;
47403;SDS011;33157;51.508;4.288;2024-01-10T05:15:24;7.43;;;2.93;;
47403;SDS011;33157;51.508;4.288;2024-01-10T05:20:24;6.17;;;3.00;;
47403;SDS011;33157;51.508;4.288;2024-01-10T05:25:25;5.93;;;3.23;;
47403;SDS011;33157;51.508;4.288;2024-01-10T05:30:27;5.90;;;2.97;;
47403;SDS011;33157;51.508;4.288;2024-01-10T05:35:28;13.50;;;5.47;;
47403;SDS011;33157;51.508;4.288;2024-01-10T05:40:28;5.17;;;2.60;;
47403;SDS011;33157;51.508;4.288;2024-01-10T05:45:32;5.80;;;2.53;;
47403;SDS011;33157;51.508;4.288;2024-01-10T05:50:33;6.77;;;2.87;;
47403;SDS011;33157;51.508;4.288;2024-01-10T05:55:33;5.67;;;3.10;;
47403;SDS011;33157;51.508;4.288;2024-01-10T06:00:34;4.77;;;2.63;;
47403;SDS011;33157;51.508;4.288;2024-01-10T06:05:34;6.13;;;3.10;;
47403;SDS011;33157;51.508;4.288;2024-01-10T06:10:34;9.53;;;3.07;;
47403;SDS011;33157;51.508;4.288;2024-01-10T06:15:35;9.53;;;3.03;;
47403;SDS011;33157;51.508;4.288;2024-01-10T06:20:35;7.73;;;2.87;;
47403;SDS011;33157;51.508;4.288;2024-01-10T06:25:38;9.10;;;3.17;;
47403;SDS011;33157;51.508;4.288;2024-01-10T06:30:38;9.80;;;3.30;;
47403;SDS011;33157;51.508;4.288;2024-01-10T06:35:38;8.73;;;3.87;;
47403;SDS011;33157;51.508;4.288;2024-01-10T06:40:39;5.87;;;2.90;;
47403;SDS011;33157;51.508;4.288;2024-01-10T06:45:41;6.07;;;2.97;;
47403;SDS011;33157;51.508;4.288;2024-01-10T06:50:42;7.03;;;3.17;;
47403;SDS011;33157;51.508;4.288;2024-01-10T06:55:44;6.13;;;3.15;;
47403;SDS011;33157;51.508;4.288;2024-01-10T07:00:44;7.03;;;3.00;;
47403;SDS011;33157;51.508;4.288;2024-01-10T07:05:44;8.43;;;3.30;;
47403;SDS011;33157;51.508;4.288;2024-01-10T07:10:45;5.30;;;2.80;;
47403;SDS011;33157;51.508;4.288;2024-01-10T07:15:45;6.43;;;3.00;;
47403;SDS011;33157;51.508;4.288;2024-01-10T07:20:46;8.07;;;3.53;;
47403;SDS011;33157;51.508;4.288;2024-01-10T07:25:46;7.57;;;3.47;;
47403;SDS011;33157;51.508;4.288;2024-01-10T07:30:47;7.50;;;3.63;;
47403;SDS011;33157;51.508;4.288;2024-01-10T07:35:47;6.50;;;3.50;;
47403;SDS011;33157;51.508;4.288;2024-01-10T07:40:48;6.57;;;3.47;;
47403;SDS011;33157;51.508;4.288;2024-01-10T07:45:48;6.73;;;2.77;;
47403;SDS011;33157;51.508;4.288;2024-01-10T07:50:49;7.23;;;3.67;;
47403;SDS011;33157;51.508;4.288;2024-01-10T07:55:49;9.10;;;3.67;;
47403;SDS011;33157;51.508;4.288;2024-01-10T08:05:51;7.65;;;3.50;;
47403;SDS011;33157;51.508;4.288;2024-01-10T08:10:52;10.13;;;3.97;;
47403;SDS011;33157;51.508;4.288;2024-01-10T08:15:52;12.37;;;3.43;;
47403;SDS011;33157;51.508;4.288;2024-01-10T08:20:53;6.50;;;3.60;;
47403;SDS011;33157;51.508;4.288;2024-01-10T08:25:55;7.75;;;4.00;;
47403;SDS011;33157;51.508;4.288;2024-01-10T08:30:55;6.20;;;3.60;;
47403;SDS011;33157;51.508;4.288;2024-01-10T08:35:56;8.73;;;4.33;;
47403;SDS011;33157;51.508;4.288;2024-01-10T08:40:56;8.97;;;3.87;;
47403;SDS011;33157;51.508;4.288;2024-01-10T08:45:57;6.97;;;3.80;;
47403;SDS011;33157;51.508;4.288;2024-01-10T08:50:57;5.43;;;3.27;;
47403;SDS011;33157;51.508;4.288;2024-01-10T08:55:58;7.80;;;3.47;;
47403;SDS011;33157;51.508;4.288;2024-01-10T09:00:58;7.97;;;4.40;;
47403;SDS011;33157;51.508;4.288;2024-01-10T09:05:59;8.50;;;3.70;;
47403;SDS011;33157;51.508;4.288;2024-01-10T09:10:59;10.73;;;3.50;;
47403;SDS011;33157;51.508;4.288;2024-01-10T09:15:59;8.10;;;3.80;;
47403;SDS011;33157;51.508;4.288;2024-01-10T09:21:00;14.17;;;4.33;;
47403;SDS011;33157;51.508;4.288;2024-01-10T09:26:00;7.10;;;4.30;;
47403;SDS011;33157;51.508;4.288;2024-01-10T09:31:01;7.87;;;3.90;;
47403;SDS011;33157;51.508;4.288;2024-01-10T09:36:01;7.83;;;3.83;;
47403;SDS011;33157;51.508;4.288;2024-01-10T09:41:01;7.87;;;4.03;;
47403;SDS011;33157;51.508;4.288;2024-01-10T09:46:03;11.45;;;4.75;;
47403;SDS011;33157;51.508;4.288;2024-01-10T09:51:04;10.20;;;4.15;;
47403;SDS011;33157;51.508;4.288;2024-01-10T09:56:07;9.85;;;4.82;;
47403;SDS011;33157;51.508;4.288;2024-01-10T10:01:10;8.20;;;4.13;;
47403;SDS011;33157;51.508;4.288;2024-01-10T10:06:10;11.30;;;5.23;;
47403;SDS011;33157;51.508;4.288;2024-01-10T10:11:14;12.97;;;4.60;;
47403;SDS011;33157;51.508;4.288;2024-01-10T10:16:14;11.05;;;5.45;;
47403;SDS011;33157;51.508;4.288;2024-01-10T10:21:25;9.02;;;4.82;;
47403;SDS011;33157;51.508;4.288;2024-01-10T10:26:32;15.30;;;6.50;;
47403;SDS011;33157;51.508;4.288;2024-01-10T10:31:33;11.63;;;5.32;;
47403;SDS011;33157;51.508;4.288;2024-01-10T10:36:33;10.30;;;5.33;;
47403;SDS011;33157;51.508;4.288;2024-01-10T10:41:34;10.93;;;5.30;;
47403;SDS011;33157;51.508;4.288;2024-01-10T10:46:35;10.93;;;5.33;;
47403;SDS011;33157;51.508;4.288;2024-01-10T10:51:37;11.25;;;4.95;;
47403;SDS011;33157;51.508;4.288;2024-01-10T10:56:38;9.70;;;5.53;;
47403;SDS011;33157;51.508;4.288;2024-01-10T11:01:39;10.82;;;5.15;;
47403;SDS011;33157;51.508;4.288;2024-01-10T11:06:40;11.50;;;5.22;;
47403;SDS011;33157;51.508;4.288;2024-01-10T11:22:27;11.20;;;6.17;;
47403;SDS011;33157;51.508;4.288;2024-01-10T11:27:52;9.85;;;5.68;;
47403;SDS011;33157;51.508;4.288;2024-01-10T11:32:55;12.52;;;6.22;;
47403;SDS011;33157;51.508;4.288;2024-01-10T11:37:57;14.75;;;6.03;;
47403;SDS011;33157;51.508;4.288;2024-01-10T11:42:59;11.70;;;6.10;;
47403;SDS011;33157;51.508;4.288;2024-01-10T11:48:00;10.32;;;5.63;;
47403;SDS011;33157;51.508;4.288;2024-01-10T11:53:00;9.75;;;5.53;;
47403;SDS011;33157;51.508;4.288;2024-01-10T11:58:07;13.43;;;6.53;;
47403;SDS011;33157;51.508;4.288;2024-01-10T12:03:11;10.73;;;5.50;;
47403;SDS011;33157;51.508;4.288;2024-01-10T12:08:11;12.20;;;6.40;;
47403;SDS011;33157;51.508;4.288;2024-01-10T12:13:12;12.15;;;6.25;;
47403;SDS011;33157;51.508;4.288;2024-01-10T12:18:12;12.13;;;6.63;;
47403;SDS011;33157;51.508;4.288;2024-01-10T12:23:12;12.70;;;5.97;;
47403;SDS011;33157;51.508;4.288;2024-01-10T12:28:16;14.70;;;7.03;;
47403;SDS011;33157;51.508;4.288;2024-01-10T12:33:17;11.18;;;5.90;;
47403;SDS011;33157;51.508;4.288;2024-01-10T12:38:17;13.60;;;6.38;;
47403;SDS011;33157;51.508;4.288;2024-01-10T12:43:18;12.32;;;5.72;;
47403;SDS011;33157;51.508;4.288;2024-01-10T12:48:20;11.15;;;5.30;;
47403;SDS011;33157;51.508;4.288;2024-01-10T12:53:20;10.90;;;5.43;;
47403;SDS011;33157;51.508;4.288;2024-01-10T12:58:21;9.38;;;5.60;;
47403;SDS011;33157;51.508;4.288;2024-01-10T13:03:22;10.90;;;5.70;;
47403;SDS011;33157;51.508;4.288;2024-01-10T13:08:23;11.35;;;6.35;;
47403;SDS011;33157;51.508;4.288;2024-01-10T13:13:23;11.52;;;5.97;;
47403;SDS011;33157;51.508;4.288;2024-01-10T13:18:24;11.48;;;6.50;;
47403;SDS011;33157;51.508;4.288;2024-01-10T13:23:25;19.33;;;6.40;;
47403;SDS011;33157;51.508;4.288;2024-01-10T13:28:25;14.30;;;6.38;;
47403;SDS011;33157;51.508;4.288;2024-01-10T13:33:27;13.02;;;6.45;;
47403;SDS011;33157;51.508;4.288;2024-01-10T13:38:29;13.63;;;6.60;;
47403;SDS011;33157;51.508;4.288;2024-01-10T13:43:29;12.07;;;5.85;;
47403;SDS011;33157;51.508;4.288;2024-01-10T13:48:30;13.20;;;7.15;;
47403;SDS011;33157;51.508;4.288;2024-01-10T13:53:30;12.43;;;6.93;;
47403;SDS011;33157;51.508;4.288;2024-01-10T13:58:31;14.25;;;6.72;;
47403;SDS011;33157;51.508;4.288;2024-01-10T14:03:31;11.13;;;5.93;;
47403;SDS011;33157;51.508;4.288;2024-01-10T14:08:32;14.35;;;6.82;;
47403;SDS011;33157;51.508;4.288;2024-01-10T14:13:32;14.02;;;7.20;;
47403;SDS011;33157;51.508;4.288;2024-01-10T14:18:32;15.40;;;7.78;;
47403;SDS011;33157;51.508;4.288;2024-01-10T14:23:33;15.27;;;7.63;;
47403;SDS011;33157;51.508;4.288;2024-01-10T14:28:33;12.45;;;7.50;;
47403;SDS011;33157;51.508;4.288;2024-01-10T14:33:34;15.65;;;8.88;;
47403;SDS011;33157;51.508;4.288;2024-01-10T14:38:34;18.40;;;8.68;;
47403;SDS011;33157;51.508;4.288;2024-01-10T14:43:36;12.13;;;6.72;;
47403;SDS011;33157;51.508;4.288;2024-01-10T14:48:36;15.33;;;8.10;;
47403;SDS011;33157;51.508;4.288;2024-01-10T14:53:37;15.05;;;8.13;;
47403;SDS011;33157;51.508;4.288;2024-01-10T14:58:38;13.60;;;7.28;;
47403;SDS011;33157;51.508;4.288;2024-01-10T15:03:39;15.82;;;8.77;;
47403;SDS011;33157;51.508;4.288;2024-01-10T15:08:42;16.08;;;7.53;;
47403;SDS011;33157;51.508;4.288;2024-01-10T15:13:43;16.23;;;7.63;;
47403;SDS011;33157;51.508;4.288;2024-01-10T15:18:43;16.83;;;8.07;;
47403;SDS011;33157;51.508;4.288;2024-01-10T15:23:45;12.83;;;7.37;;
47403;SDS011;33157;51.508;4.288;2024-01-10T15:28:45;13.65;;;7.75;;
47403;SDS011;33157;51.508;4.288;2024-01-10T15:33:46;16.02;;;8.50;;
47403;SDS011;33157;51.508;4.288;2024-01-10T15:38:46;21.48;;;8.13;;
47403;SDS011;33157;51.508;4.288;2024-01-10T15:43:47;17.10;;;8.65;;
47403;SDS011;33157;51.508;4.288;2024-01-10T15:48:47;14.80;;;8.15;;
47403;SDS011;33157;51.508;4.288;2024-01-10T15:53:48;16.35;;;7.53;;
47403;SDS011;33157;51.508;4.288;2024-01-10T16:03:50;14.40;;;7.40;;
47403;SDS011;33157;51.508;4.288;2024-01-10T16:08:51;14.30;;;7.18;;
47403;SDS011;33157;51.508;4.288;2024-01-10T16:13:51;12.63;;;6.95;;
47403;SDS011;33157;51.508;4.288;2024-01-10T16:18:52;13.13;;;7.50;;
47403;SDS011;33157;51.508;4.288;2024-01-10T16:23:52;13.18;;;7.18;;
47403;SDS011;33157;51.508;4.288;2024-01-10T16:28:53;18.92;;;8.25;;
47403;SDS011;33157;51.508;4.288;2024-01-10T16:33:54;18.45;;;9.32;;
47403;SDS011;33157;51.508;4.288;2024-01-10T16:38:54;23.30;;;10.02;;
47403;SDS011;33157;51.508;4.288;2024-01-10T16:43:55;15.85;;;8.52;;
47403;SDS011;33157;51.508;4.288;2024-01-10T16:48:56;23.17;;;13.57;;
47403;SDS011;33157;51.508;4.288;2024-01-10T16:53:56;18.38;;;9.25;;
47403;SDS011;33157;51.508;4.288;2024-01-10T16:58:57;17.77;;;9.48;;
47403;SDS011;33157;51.508;4.288;2024-01-10T17:03:57;19.38;;;9.73;;
47403;SDS011;33157;51.508;4.288;2024-01-10T17:08:58;21.95;;;9.75;;
47403;SDS011;33157;51.508;4.288;2024-01-10T17:14:00;18.25;;;9.68;;
47403;SDS011;33157;51.508;4.288;2024-01-10T17:19:01;20.83;;;8.68;;
47403;SDS011;33157;51.508;4.288;2024-01-10T17:24:01;18.17;;;9.05;;
47403;SDS011;33157;51.508;4.288;2024-01-10T17:29:02;16.25;;;8.90;;
47403;SDS011;33157;51.508;4.288;2024-01-10T17:34:04;17.67;;;8.50;;
47403;SDS011;33157;51.508;4.288;2024-01-10T17:39:05;20.65;;;9.45;;
47403;SDS011;33157;51.508;4.288;2024-01-10T17:44:05;16.90;;;9.05;;
47403;SDS011;33157;51.508;4.288;2024-01-10T17:49:06;19.73;;;10.10;;
47403;SDS011;33157;51.508;4.288;2024-01-10T17:54:07;21.20;;;9.32;;
47403;SDS011;33157;51.508;4.288;2024-01-10T17:59:08;17.17;;;8.93;;
47403;SDS011;33157;51.508;4.288;2024-01-10T18:04:08;18.45;;;9.07;;
47403;SDS011;33157;51.508;4.288;2024-01-10T18:09:09;17.95;;;8.77;;
47403;SDS011;33157;51.508;4.288;2024-01-10T18:14:09;16.85;;;8.18;;
47403;SDS011;33157;51.508;4.288;2024-01-10T18:19:10;20.03;;;9.70;;
47403;SDS011;33157;51.508;4.288;2024-01-10T18:24:12;18.33;;;9.93;;
47403;SDS011;33157;51.508;4.288;2024-01-10T18:29:12;20.40;;;11.27;;
47403;SDS011;33157;51.508;4.288;2024-01-10T18:34:14;16.57;;;9.83;;
47403;SDS011;33157;51.508;4.288;2024-01-10T18:39:14;19.50;;;10.17;;
47403;SDS011;33157;51.508;4.288;2024-01-10T18:44:15;19.70;;;9.20;;
47403;SDS011;33157;51.508;4.288;2024-01-10T18:49:16;26.37;;;13.13;;
47403;SDS011;33157;51.508;4.288;2024-01-10T18:54:16;31.10;;;13.37;;
47403;SDS011;33157;51.508;4.288;2024-01-10T18:59:17;21.93;;;10.63;;
47403;SDS011;33157;51.508;4.288;2024-01-10T19:04:17;19.83;;;10.53;;
47403;SDS011;33157;51.508;4.288;2024-01-10T19:09:18;21.30;;;10.80;;
47403;SDS011;33157;51.508;4.288;2024-01-10T19:14:18;19.90;;;10.53;;
47403;SDS011;33157;51.508;4.288;2024-01-10T19:19:19;24.03;;;10.73;;
47403;SDS011;33157;51.508;4.288;2024-01-10T19:24:22;21.77;;;9.60;;
47403;SDS011;33157;51.508;4.288;2024-01-10T19:29:22;22.03;;;9.60;;
47403;SDS011;33157;51.508;4.288;2024-01-10T19:34:23;21.20;;;10.43;;
47403;SDS011;33157;51.508;4.288;2024-01-10T19:39:24;21.97;;;11.17;;
47403;SDS011;33157;51.508;4.288;2024-01-10T19:44:24;22.47;;;11.43;;
47403;SDS011;33157;51.508;4.288;2024-01-10T19:49:25;21.13;;;10.10;;
47403;SDS011;33157;51.508;4.288;2024-01-10T19:54:26;19.40;;;9.60;;
47403;SDS011;33157;51.508;4.288;2024-01-10T19:59:27;23.03;;;10.47;;
47403;SDS011;33157;51.508;4.288;2024-01-10T20:04:28;19.37;;;9.63;;
47403;SDS011;33157;51.508;4.288;2024-01-10T20:09:28;21.17;;;10.23;;
47403;SDS011;33157;51.508;4.288;2024-01-10T20:14:29;21.53;;;9.97;;
47403;SDS011;33157;51.508;4.288;2024-01-10T20:19:29;21.50;;;10.30;;
47403;SDS011;33157;51.508;4.288;2024-01-10T20:24:30;18.67;;;9.90;;
47403;SDS011;33157;51.508;4.288;2024-01-10T20:29:31;19.17;;;10.20;;
47403;SDS011;33157;51.508;4.288;2024-01-10T20:34:31;25.17;;;11.23;;
47403;SDS011;33157;51.508;4.288;2024-01-10T20:39:32;21.17;;;10.87;;
47403;SDS011;33157;51.508;4.288;2024-01-10T20:44:32;20.70;;;9.67;;
47403;SDS011;33157;51.508;4.288;2024-01-10T20:49:33;19.07;;;10.93;;
47403;SDS011;33157;51.508;4.288;2024-01-10T20:54:33;19.80;;;9.87;;
47403;SDS011;33157;51.508;4.288;2024-01-10T20:59:35;22.35;;;10.55;;
47403;SDS011;33157;51.508;4.288;2024-01-10T21:04:35;21.60;;;10.87;;
47403;SDS011;33157;51.508;4.288;2024-01-10T21:09:36;22.47;;;11.03;;
47403;SDS011;33157;51.508;4.288;2024-01-10T21:14:37;21.30;;;10.90;;
47403;SDS011;33157;51.508;4.288;2024-01-10T21:19:40;22.83;;;11.30;;
47403;SDS011;33157;51.508;4.288;2024-01-10T21:24:42;22.42;;;10.75;;
47403;SDS011;33157;51.508;4.288;2024-01-10T21:29:43;18.97;;;10.27;;
47403;SDS011;33157;51.508;4.288;2024-01-10T21:34:43;24.40;;;11.10;;
47403;SDS011;33157;51.508;4.288;2024-01-10T21:39:44;21.80;;;11.00;;
47403;SDS011;33157;51.508;4.288;2024-01-10T21:44:45;19.03;;;12.00;;
47403;SDS011;33157;51.508;4.288;2024-01-10T21:49:45;29.40;;;10.43;;
47403;SDS011;33157;51.508;4.288;2024-01-10T21:54:46;22.00;;;10.83;;
47403;SDS011;33157;51.508;4.288;2024-01-10T21:59:46;22.57;;;11.03;;
47403;SDS011;33157;51.508;4.288;2024-01-10T22:04:47;22.03;;;11.87;;
47403;SDS011;33157;51.508;4.288;2024-01-10T22:09:47;22.70;;;9.80;;
47403;SDS011;33157;51.508;4.288;2024-01-10T22:14:48;22.40;;;10.73;;
47403;SDS011;33157;51.508;4.288;2024-01-10T22:19:48;22.27;;;10.63;;
47403;SDS011;33157;51.508;4.288;2024-01-10T22:24:49;22.07;;;10.87;;
47403;SDS011;33157;51.508;4.288;2024-01-10T22:29:50;25.47;;;11.23;;
47403;SDS011;33157;51.508;4.288;2024-01-10T22:34:50;24.40;;;11.90;;
47403;SDS011;33157;51.508;4.288;2024-01-10T22:39:51;22.83;;;11.10;;
47403;SDS011;33157;51.508;4.288;2024-01-10T22:44:51;23.33;;;11.67;;
47403;SDS011;33157;51.508;4.288;2024-01-10T22:49:52;19.53;;;11.13;;
47403;SDS011;33157;51.508;4.288;2024-01-10T22:54:52;25.43;;;12.27;;
47403;SDS011;33157;51.508;4.288;2024-01-10T22:59:53;22.13;;;12.17;;
47403;SDS011;33157;51.508;4.288;2024-01-10T23:04:54;23.50;;;11.03;;
47403;SDS011;33157;51.508;4.288;2024-01-10T23:09:54;28.00;;;12.57;;
47403;SDS011;33157;51.508;4.288;2024-01-10T23:14:55;24.80;;;11.83;;
47403;SDS011;33157;51.508;4.288;2024-01-10T23:19:55;20.87;;;10.60;;
47403;SDS011;33157;51.508;4.288;2024-01-10T23:24:56;20.93;;;11.13;;
47403;SDS011;33157;51.508;4.288;2024-01-10T23:29:57;21.37;;;11.10;;
47403;SDS011;33157;51.508;4.288;2024-01-10T23:34:57;20.83;;;10.90;;
47403;SDS011;33157;51.508;4.288;2024-01-10T23:39:58;24.10;;;11.27;;
47403;SDS011;33157;51.508;4.288;2024-01-10T23:44:58;21.77;;;11.57;;
47403;SDS011;33157;51.508;4.288;2024-01-10T23:49:59;21.27;;;11.20;;
47403;SDS011;33157;51.508;4.288;2024-01-10T23:54:59;24.03;;;11.53;;
47403;SDS011;33157;51.508;4.288;2024-01-10T23:59:59;23.77;;;12.20;;
